createdAt,value
2023-04-04T00:02:18.358Z,98867.39
2023-04-04T00:05:33.889Z,98864.67
2023-04-04T00:08:42.402Z,98861.34
2023-04-04T00:11:39.665Z,98864.13
2023-04-04T00:14:13.934Z,98864.61
2023-04-04T00:16:48.888Z,98868.19
2023-04-04T00:20:11.812Z,98868.73
2023-04-04T00:23:07.279Z,98870.52
2023-04-04T00:26:05.294Z,98872.19
2023-04-04T00:29:26.571Z,98872.73
2023-04-04T00:32:20.991Z,98874.15
2023-04-04T00:35:00.556Z,98869.73
2023-04-04T00:37:28.088Z,98870.66
2023-04-04T00:40:15.409Z,98872.27
2023-04-04T00:42:57.644Z,98868.33
2023-04-04T00:46:11.252Z,98869.53
2023-04-04T00:48:56.582Z,98866.09
2023-04-04T00:52:07.721Z,98860.25
2023-04-04T00:55:02.067Z,98853.73
2023-04-04T00:57:51.853Z,98851.55
2023-04-04T01:01:22.839Z,98848.16
2023-04-04T01:04:17.285Z,98850.14
2023-04-04T01:06:53.586Z,98848.13
2023-04-04T01:10:05.233Z,98854.02
2023-04-04T01:13:10.502Z,98858.08
2023-04-04T01:16:03.299Z,98862.98
2023-04-04T01:18:44.484Z,98867.97
2023-04-04T01:21:18.822Z,98874.14
2023-04-04T01:24:27.703Z,98878.70
2023-04-04T01:27:40.476Z,98871.63
2023-04-04T01:30:16.762Z,98868.56
2023-04-04T01:33:10.752Z,98869.26
2023-04-04T01:35:53.072Z,98876.50
2023-04-04T01:39:17.400Z,98887.42
2023-04-04T01:42:24.691Z,98888.79
2023-04-04T01:45:09.443Z,98882.56
2023-04-04T01:48:17.438Z,98876.43
2023-04-04T01:51:03.514Z,98861.91
2023-04-04T01:53:48.491Z,98847.41
2023-04-04T01:56:59.316Z,98841.81
2023-04-04T02:00:07.334Z,98849.38
2023-04-04T02:03:12.903Z,98853.61
2023-04-04T02:05:50.856Z,98858.92
2023-04-04T02:08:21.544Z,98865.86
2023-04-04T02:11:33.459Z,98869.48
2023-04-04T02:14:50.491Z,98864.30
2023-04-04T02:17:45.673Z,98860.08
2023-04-04T02:20:38.706Z,98852.73
2023-04-04T02:23:22.405Z,98836.94
2023-04-04T02:26:13.012Z,98831.98
2023-04-04T02:29:34.253Z,98829.45
2023-04-04T02:32:39.729Z,98816.13
2023-04-04T02:35:36.056Z,98806.05
2023-04-04T02:38:18.648Z,98805.06
2023-04-04T02:40:51.847Z,98801.59
2023-04-04T02:43:39.962Z,98801.81
2023-04-04T02:46:40.111Z,98793.88
2023-04-04T02:49:47.337Z,98785.96
2023-04-04T02:52:25.841Z,98779.06
2023-04-04T02:55:08.490Z,98767.88
2023-04-04T02:57:42.258Z,98762.52
2023-04-04T03:00:32.687Z,98765.05
2023-04-04T03:03:11.478Z,98766.05
2023-04-04T03:05:49.594Z,98777.96
2023-04-04T03:09:13.858Z,98777.98
2023-04-04T03:12:24.056Z,98784.93
2023-04-04T03:15:23.879Z,98793.67
2023-04-04T03:18:14.361Z,98797.08
2023-04-04T03:20:44.167Z,98801.42
2023-04-04T03:23:17.051Z,98802.55
2023-04-04T03:26:03.242Z,98800.58
2023-04-04T03:29:04.295Z,98801.71
2023-04-04T03:32:35.734Z,98802.94
2023-04-04T03:35:37.273Z,98812.21
2023-04-04T03:38:26.629Z,98817.14
2023-04-04T03:41:17.499Z,98815.42
2023-04-04T03:43:45.454Z,98820.05
2023-04-04T03:46:15.822Z,98824.14
2023-04-04T03:48:44.176Z,98826.52
2023-04-04T03:51:23.989Z,98830.14
2023-04-04T03:53:54.465Z,98834.84
2023-04-04T03:56:32.142Z,98845.27
2023-04-04T03:59:00.667Z,98844.49
2023-04-04T04:01:40.533Z,98845.26
2023-04-04T04:04:13.777Z,98853.16
2023-04-04T04:07:23.485Z,98853.64
2023-04-04T04:11:04.226Z,98854.47
2023-04-04T04:14:33.119Z,98858.50
2023-04-04T04:18:20.926Z,98862.80
2023-04-04T04:21:59.011Z,98865.98
2023-04-04T04:25:02.485Z,98864.44
2023-04-04T04:28:17.729Z,98863.81
2023-04-04T04:31:11.587Z,98861.16
2023-04-04T04:33:51.887Z,98862.53
2023-04-04T04:36:55.763Z,98861.13
2023-04-04T04:40:21.083Z,98862.11
2023-04-04T04:43:17.379Z,98865.04
2023-04-04T04:46:27.334Z,98865.77
2023-04-04T04:49:38.533Z,98867.29
2023-04-04T04:53:05.242Z,98865.21
2023-04-04T04:55:39.849Z,98861.05
2023-04-04T04:59:03.193Z,98866.08
2023-04-04T05:01:39.798Z,98859.54
2023-04-04T05:04:54.818Z,98858.08
2023-04-04T05:08:11.436Z,98854.02
2023-04-04T05:12:00.358Z,98855.20
2023-04-04T05:15:18.296Z,98860.30
2023-04-04T05:17:50.707Z,98869.84
2023-04-04T05:20:33.704Z,98875.14
2023-04-04T05:23:48.638Z,98881.71
2023-04-04T05:26:30.301Z,98887.17
2023-04-04T05:29:28.089Z,98888.23
2023-04-04T05:32:13.137Z,98893.11
2023-04-04T05:35:10.440Z,98889.65
2023-04-04T05:37:42.958Z,98891.66
2023-04-04T05:40:23.401Z,98893.61
2023-04-04T05:43:08.334Z,98892.74
2023-04-04T05:45:50.556Z,98890.13
2023-04-04T05:48:53.245Z,98890.83
2023-04-04T05:51:39.083Z,98886.88
2023-04-04T05:54:30.198Z,98884.48
2023-04-04T05:57:05.110Z,98881.17
2023-04-04T05:59:51.738Z,98879.34
2023-04-04T06:02:19.974Z,98875.41
2023-04-04T06:05:02.589Z,98874.13
2023-04-04T06:07:39.654Z,98872.09
2023-04-04T06:10:09.351Z,98868.86
2023-04-04T06:12:38.050Z,98867.73
2023-04-04T06:15:11.291Z,98864.87
2023-04-04T06:17:40.057Z,98866.40
2023-04-04T06:20:13.263Z,98869.73
2023-04-04T06:22:49.936Z,98868.78
2023-04-04T06:25:18.021Z,98866.45
2023-04-04T06:27:48.514Z,98866.38
2023-04-04T06:30:22.980Z,98867.30
2023-04-04T06:32:53.107Z,98866.70
2023-04-04T06:35:28.011Z,98868.70
2023-04-04T06:38:02.827Z,98867.61
2023-04-04T06:40:46.443Z,98866.31
2023-04-04T06:43:31.010Z,98858.59
2023-04-04T06:46:06.726Z,98859.11
2023-04-04T06:48:54.988Z,98853.58
2023-04-04T06:51:30.049Z,98847.13
2023-04-04T06:53:57.406Z,98850.50
2023-04-04T06:56:28.193Z,98852.13
2023-04-04T06:58:55.340Z,98856.00
2023-04-04T07:01:25.324Z,98854.89
2023-04-04T07:03:54.452Z,98856.75
2023-04-04T07:06:25.751Z,98856.54
2023-04-04T07:08:53.742Z,98858.91
2023-04-04T07:11:23.911Z,98863.20
2023-04-04T07:13:50.966Z,98865.05
2023-04-04T07:16:18.121Z,98867.91
2023-04-04T07:18:54.463Z,98864.48
2023-04-04T07:21:24.923Z,98869.66
2023-04-04T07:24:08.138Z,98877.58
2023-04-04T07:26:45.051Z,98875.55
2023-04-04T07:29:25.887Z,98871.27
2023-04-04T07:32:03.322Z,98864.60
2023-04-04T07:34:34.492Z,98863.14
2023-04-04T07:37:15.942Z,98863.09
2023-04-04T07:39:43.267Z,98859.98
2023-04-04T07:42:12.841Z,98858.28
2023-04-04T07:44:50.766Z,98853.56
2023-04-04T07:47:18.326Z,98851.46
2023-04-04T07:49:45.813Z,98850.95
2023-04-04T07:52:22.437Z,98851.04
2023-04-04T07:54:49.744Z,98857.36
2023-04-04T07:57:16.828Z,98864.05
2023-04-04T07:59:44.764Z,98862.33
2023-04-04T08:02:15.323Z,98862.23
2023-04-04T08:04:42.798Z,98862.03
2023-04-04T08:07:09.986Z,98863.77
2023-04-04T08:09:40.803Z,98869.40
2023-04-04T08:12:13.925Z,98865.16
2023-04-04T08:14:41.554Z,98860.66
2023-04-04T08:17:08.757Z,98865.42
2023-04-04T08:19:37.365Z,98863.46
2023-04-04T08:22:05.494Z,98858.77
2023-04-04T08:24:32.768Z,98858.83
2023-04-04T08:27:15.590Z,98857.31
2023-04-04T08:29:46.930Z,98858.14
2023-04-04T08:32:17.827Z,98853.08
2023-04-04T08:34:51.194Z,98848.55
2023-04-04T08:37:21.461Z,98842.80
2023-04-04T08:39:48.528Z,98842.94
2023-04-04T08:42:17.771Z,98842.95
2023-04-04T08:44:45.535Z,98844.95
2023-04-04T08:47:13.501Z,98848.98
2023-04-04T08:49:44.149Z,98841.25
2023-04-04T08:52:12.192Z,98841.12
2023-04-04T08:54:43.461Z,98847.52
2023-04-04T08:57:10.892Z,98847.17
2023-04-04T08:59:38.155Z,98846.63
2023-04-04T09:02:16.369Z,98846.00
2023-04-04T09:04:51.383Z,98844.68
2023-04-04T09:07:22.862Z,98846.11
2023-04-04T09:09:50.476Z,98851.69
2023-04-04T09:12:22.434Z,98848.48
2023-04-04T09:14:52.066Z,98852.31
2023-04-04T09:17:19.992Z,98852.80
2023-04-04T09:19:47.588Z,98853.23
2023-04-04T09:22:14.640Z,98858.23
2023-04-04T09:24:42.649Z,98853.27
2023-04-04T09:27:10.866Z,98853.80
2023-04-04T09:29:41.699Z,98852.70
2023-04-04T09:32:09.175Z,98849.59
2023-04-04T09:34:36.621Z,98844.05
2023-04-04T09:37:06.752Z,98851.92
2023-04-04T09:39:36.375Z,98849.90
2023-04-04T09:42:08.626Z,98853.23
2023-04-04T09:44:36.997Z,98850.34
2023-04-04T09:50:00.613Z,98846.32
2023-04-04T09:52:28.179Z,98853.86
2023-04-04T09:54:58.352Z,98855.79
2023-04-04T09:57:33.027Z,98857.07
2023-04-04T10:00:03.694Z,98855.40
2023-04-04T10:02:39.409Z,98856.84
2023-04-04T10:05:10.451Z,98856.02
2023-04-04T10:07:47.411Z,98852.13
2023-04-04T10:10:15.625Z,98847.11
2023-04-04T10:12:45.678Z,98850.34
2023-04-04T10:15:15.337Z,98848.55
2023-04-04T10:17:44.129Z,98846.23
2023-04-04T10:20:14.468Z,98853.29
2023-04-04T10:27:45.684Z,98853.65
2023-04-04T10:30:13.784Z,98844.73
2023-04-04T10:32:57.566Z,98846.30
2023-04-04T10:35:24.639Z,98843.08
2023-04-04T10:37:59.114Z,98847.39
2023-04-04T10:40:29.120Z,98846.89
2023-04-04T10:42:56.036Z,98849.69
2023-04-04T10:45:23.297Z,98848.16
2023-04-04T10:47:51.970Z,98849.93
2023-04-04T10:50:20.699Z,98849.58
2023-04-04T10:52:48.519Z,98848.79
2023-04-04T10:55:16.503Z,98843.83
2023-04-04T10:57:47.720Z,98849.61
2023-04-04T11:00:20.345Z,98845.46
2023-04-04T11:02:54.833Z,98840.04
2023-04-04T11:05:40.942Z,98842.70
2023-04-04T11:13:13.775Z,98837.10
2023-04-04T11:16:01.371Z,98833.70
2023-04-04T11:18:33.651Z,98831.73
2023-04-04T11:21:02.258Z,98832.66
2023-04-04T11:23:47.562Z,98828.28
2023-04-04T11:26:32.493Z,98823.30
2023-04-04T11:29:03.294Z,98825.42
2023-04-04T11:31:34.194Z,98820.69
2023-04-04T11:34:07.203Z,98819.29
2023-04-04T11:36:36.557Z,98813.94
2023-04-04T11:39:04.807Z,98813.65
2023-04-04T11:41:44.567Z,98811.70
2023-04-04T11:44:11.432Z,98817.20
2023-04-04T11:46:38.820Z,98817.13
2023-04-04T11:49:05.587Z,98819.14
2023-04-04T11:51:32.421Z,98817.23
2023-04-04T11:54:08.951Z,98818.86
2023-04-04T11:56:38.023Z,98815.84
2023-04-04T11:59:11.469Z,98812.11
2023-04-04T12:01:40.850Z,98809.63
2023-04-04T12:04:07.361Z,98813.67
2023-04-04T12:06:34.899Z,98813.06
2023-04-04T12:09:06.179Z,98809.84
2023-04-04T12:11:35.824Z,98813.26
2023-04-04T12:14:17.785Z,98809.70
2023-04-04T12:16:51.728Z,98810.46
2023-04-04T12:19:18.648Z,98808.39
2023-04-04T12:21:57.675Z,98810.23
2023-04-04T12:24:26.543Z,98814.10
2023-04-04T12:26:53.016Z,98804.40
2023-04-04T12:29:22.158Z,98805.16
2023-04-04T12:31:49.039Z,98809.25
2023-04-04T12:34:20.308Z,98808.00
2023-04-04T12:36:56.984Z,98808.29
2023-04-04T12:39:25.359Z,98813.09
2023-04-04T12:42:05.416Z,98812.92
2023-04-04T12:44:41.813Z,98814.56
2023-04-04T12:47:10.078Z,98814.91
2023-04-04T12:49:42.458Z,98808.77
2023-04-04T12:52:22.520Z,98807.27
2023-04-04T12:54:59.086Z,98803.30
2023-04-04T12:57:32.195Z,98802.95
2023-04-04T12:59:58.841Z,98800.52
2023-04-04T13:02:25.634Z,98795.40
2023-04-04T13:04:56.642Z,98793.95
2023-04-04T13:07:27.413Z,98796.63
2023-04-04T13:09:54.453Z,98798.73
2023-04-04T13:12:23.020Z,98800.70
2023-04-04T13:15:00.158Z,98798.16
2023-04-04T13:17:42.988Z,98791.73
2023-04-04T13:20:11.419Z,98780.96
2023-04-04T13:22:39.474Z,98781.06
2023-04-04T13:25:06.687Z,98776.79
2023-04-04T13:27:34.712Z,98780.15
2023-04-04T13:30:01.176Z,98774.46
2023-04-04T13:32:28.629Z,98765.11
2023-04-04T13:34:56.362Z,98761.23
2023-04-04T13:37:25.970Z,98759.34
2023-04-04T13:39:52.485Z,98763.35
2023-04-04T13:42:18.808Z,98767.61
2023-04-04T13:44:45.496Z,98773.97
2023-04-04T13:47:12.159Z,98775.75
2023-04-04T13:49:49.254Z,98782.86
2023-04-04T13:52:28.860Z,98779.36
2023-04-04T13:54:55.345Z,98780.48
2023-04-04T13:57:35.349Z,98783.99
2023-04-04T14:00:09.495Z,98783.64
2023-04-04T14:02:42.837Z,98784.40
2023-04-04T14:05:29.775Z,98778.08
2023-04-04T14:08:01.641Z,98777.84
2023-04-04T14:10:34.141Z,98781.05
2023-04-04T14:13:01.134Z,98784.66
2023-04-04T14:15:28.337Z,98784.23
2023-04-04T14:17:55.155Z,98786.59
2023-04-04T14:20:25.156Z,98789.81
2023-04-04T14:23:02.338Z,98784.13
2023-04-04T14:25:33.778Z,98777.63
2023-04-04T14:28:02.770Z,98775.70
2023-04-04T14:30:29.584Z,98765.16
2023-04-04T14:33:07.246Z,98764.19
2023-04-04T14:35:35.248Z,98766.80
2023-04-04T14:38:03.019Z,98762.13
2023-04-04T14:40:31.701Z,98763.21
2023-04-04T14:42:58.402Z,98760.59
2023-04-04T14:45:27.922Z,98761.27
2023-04-04T14:47:54.938Z,98761.02
2023-04-04T14:50:21.873Z,98763.13
2023-04-04T14:52:55.638Z,98765.39
2023-04-04T14:55:22.350Z,98767.48
2023-04-04T14:58:02.533Z,98770.84
2023-04-04T15:00:30.425Z,98774.83
2023-04-04T15:02:58.871Z,98775.02
2023-04-04T15:05:28.186Z,98776.02
2023-04-04T15:07:55.341Z,98775.37
2023-04-04T15:10:25.044Z,98770.52
2023-04-04T15:12:52.280Z,98772.57
2023-04-04T15:15:23.946Z,98774.16
2023-04-04T15:17:50.858Z,98773.03
2023-04-04T15:20:25.957Z,98778.88
2023-04-04T15:22:52.521Z,98781.44
2023-04-04T15:25:18.909Z,98779.77
2023-04-04T15:27:47.140Z,98780.41
2023-04-04T15:30:14.952Z,98783.18
2023-04-04T15:32:42.229Z,98779.67
2023-04-04T15:35:18.211Z,98784.64
2023-04-04T15:37:45.150Z,98789.93
2023-04-04T15:40:12.463Z,98793.97
2023-04-04T15:42:39.441Z,98796.08
2023-04-04T15:45:07.880Z,98796.20
2023-04-04T15:47:34.470Z,98801.44
2023-04-04T15:50:01.571Z,98802.77
2023-04-04T15:52:28.165Z,98801.80
2023-04-04T15:54:57.044Z,98803.36
2023-04-04T15:57:24.884Z,98807.25
2023-04-04T15:59:53.289Z,98809.32
2023-04-04T16:02:20.279Z,98810.45
2023-04-04T16:04:47.113Z,98812.79
2023-04-04T16:07:13.401Z,98812.84
2023-04-04T16:09:42.467Z,98814.79
2023-04-04T16:12:09.109Z,98816.55
2023-04-04T16:14:35.560Z,98815.94
2023-04-04T16:17:07.243Z,98821.85
2023-04-04T16:19:33.855Z,98820.34
2023-04-04T16:22:00.352Z,98818.83
2023-04-04T16:24:29.834Z,98823.23
2023-04-04T16:26:59.082Z,98819.50
2023-04-04T16:29:30.394Z,98824.21
2023-04-04T16:31:57.702Z,98825.98
2023-04-04T16:34:24.046Z,98825.02
2023-04-04T16:36:52.461Z,98829.15
2023-04-04T16:39:22.495Z,98828.32
2023-04-04T16:41:48.851Z,98824.59
2023-04-04T16:44:27.262Z,98824.11
2023-04-04T16:46:53.762Z,98824.74
2023-04-04T16:49:20.350Z,98825.34
2023-04-04T16:51:51.919Z,98824.90
2023-04-04T16:54:37.595Z,98820.75
2023-04-04T16:57:09.132Z,98821.54
2023-04-04T16:59:36.536Z,98824.70
2023-04-04T17:02:07.544Z,98826.16
2023-04-04T17:04:53.560Z,98823.06
2023-04-04T17:07:27.465Z,98825.30
2023-04-04T17:09:54.200Z,98824.20
2023-04-04T17:12:22.462Z,98823.19
2023-04-04T17:14:53.000Z,98825.18
2023-04-04T17:17:19.816Z,98823.73
2023-04-04T17:19:52.073Z,98825.77
2023-04-04T17:22:41.579Z,98828.21
2023-04-04T17:25:11.169Z,98830.27
2023-04-04T17:27:40.964Z,98837.25
2023-04-04T17:30:20.643Z,98837.81
2023-04-04T17:32:51.815Z,98838.77
2023-04-04T17:35:18.234Z,98839.05
2023-04-04T17:37:54.723Z,98840.83
2023-04-04T17:40:21.563Z,98833.39
2023-04-04T17:42:47.961Z,98838.05
2023-04-04T17:45:14.671Z,98839.64
2023-04-04T17:47:45.357Z,98836.84
2023-04-04T17:50:15.235Z,98836.44
2023-04-04T17:52:41.812Z,98837.52
2023-04-04T17:55:22.302Z,98841.04
2023-04-04T17:57:51.904Z,98841.74
2023-04-04T18:00:19.366Z,98850.21
2023-04-04T18:02:55.657Z,98851.15
2023-04-04T18:05:35.596Z,98855.39
2023-04-04T18:08:14.801Z,98860.25
2023-04-04T18:10:44.456Z,98858.54
2023-04-04T18:13:58.197Z,98858.56
2023-04-04T18:16:27.630Z,98866.34
2023-04-04T18:19:07.265Z,98869.39
2023-04-04T18:21:34.003Z,98874.02
2023-04-04T18:24:04.729Z,98867.09
2023-04-04T18:26:31.455Z,98862.60
2023-04-04T18:29:38.145Z,98863.14
2023-04-04T18:32:04.617Z,98867.09
2023-04-04T18:34:34.404Z,98866.30
2023-04-04T18:37:00.923Z,98865.02
2023-04-04T18:39:28.346Z,98862.92
2023-04-04T18:41:54.693Z,98869.17
2023-04-04T18:44:23.890Z,98866.98
2023-04-04T18:46:52.925Z,98865.98
2023-04-04T18:49:50.673Z,98866.84
2023-04-04T18:52:17.243Z,98870.69
2023-04-04T18:54:44.609Z,98868.63
2023-04-04T18:57:47.814Z,98869.64
2023-04-04T19:00:23.561Z,98860.48
2023-04-04T19:02:54.680Z,98865.67
2023-04-04T19:05:31.145Z,98865.19
2023-04-04T19:07:57.704Z,98867.70
2023-04-04T19:10:24.130Z,98872.13
2023-04-04T19:12:56.298Z,98871.59
2023-04-04T19:15:22.887Z,98865.58
2023-04-04T19:17:49.385Z,98857.31
2023-04-04T19:20:16.173Z,98851.40
2023-04-04T19:22:42.641Z,98854.39
2023-04-04T19:25:09.598Z,98852.42
2023-04-04T19:27:36.472Z,98852.22
2023-04-04T19:30:12.009Z,98853.06
2023-04-04T19:32:42.363Z,98853.09
2023-04-04T19:35:19.414Z,98855.19
2023-04-04T19:37:46.130Z,98850.50
2023-04-04T19:40:15.034Z,98850.02
2023-04-04T19:42:45.019Z,98852.36
2023-04-04T19:45:12.504Z,98851.27
2023-04-04T19:47:38.957Z,98851.35
2023-04-04T19:50:05.978Z,98850.80
2023-04-04T19:52:32.534Z,98849.63
2023-04-04T19:54:58.949Z,98852.36
2023-04-04T19:57:26.740Z,98852.08
2023-04-04T20:00:12.740Z,98850.89
2023-04-04T20:02:47.555Z,98847.67
2023-04-04T20:05:31.440Z,98849.95
2023-04-04T20:07:59.454Z,98849.49
2023-04-04T20:10:36.404Z,98849.67
2023-04-04T20:13:09.889Z,98852.65
2023-04-04T20:15:46.793Z,98852.88
2023-04-04T20:18:22.949Z,98856.99
2023-04-04T20:20:56.728Z,98853.87
2023-04-04T20:23:25.433Z,98853.85
2023-04-04T20:25:51.930Z,98855.08
2023-04-04T20:28:26.963Z,98855.91
2023-04-04T20:30:56.013Z,98853.64
2023-04-04T20:33:38.732Z,98850.50
2023-04-04T20:36:12.951Z,98852.25
2023-04-04T20:38:40.690Z,98851.67
2023-04-04T20:41:25.832Z,98854.46
2023-04-04T20:43:56.778Z,98852.84
2023-04-04T20:46:25.217Z,98852.11
2023-04-04T20:48:55.642Z,98849.97
2023-04-04T20:51:31.944Z,98852.48
2023-04-04T20:54:02.033Z,98850.81
2023-04-04T20:56:42.883Z,98846.98
2023-04-04T20:59:35.765Z,98842.13
2023-04-04T21:02:16.616Z,98838.64
2023-04-04T21:04:45.030Z,98838.07
2023-04-04T21:07:34.929Z,98837.49
2023-04-04T21:10:01.287Z,98831.34
2023-04-04T21:12:27.656Z,98832.49
2023-04-04T21:14:54.160Z,98834.15
2023-04-04T21:17:23.103Z,98834.04
2023-04-04T21:19:55.723Z,98831.86
2023-04-04T21:22:23.587Z,98833.85
2023-04-04T21:24:50.121Z,98841.09
2023-04-04T21:27:32.425Z,98836.08
2023-04-04T21:29:59.020Z,98834.58
2023-04-04T21:32:25.932Z,98834.23
2023-04-04T21:34:52.752Z,98837.45
2023-04-04T21:37:20.773Z,98835.34
2023-04-04T21:39:50.633Z,98835.67
2023-04-04T21:42:18.022Z,98831.39
2023-04-04T21:44:44.361Z,98836.05
2023-04-04T21:47:11.149Z,98834.02
2023-04-04T21:49:37.541Z,98837.63
2023-04-04T21:52:06.319Z,98838.59
2023-04-04T21:54:35.555Z,98835.89
2023-04-04T21:57:02.425Z,98835.02
2023-04-04T21:59:28.898Z,98832.64
2023-04-04T22:01:55.360Z,98837.48
2023-04-04T22:04:25.080Z,98840.23
2023-04-04T22:06:54.598Z,98838.39
2023-04-04T22:09:42.912Z,98837.52
2023-04-04T22:13:31.590Z,98836.77
2023-04-04T22:17:31.824Z,98842.43
2023-04-04T22:21:11.136Z,98840.90
2023-04-04T22:24:17.410Z,98842.09
2023-04-04T22:28:07.556Z,98840.92
2023-04-04T22:32:03.824Z,98834.77
2023-04-04T22:35:50.386Z,98837.61
2023-04-04T22:39:57.781Z,98833.69
2023-04-04T22:43:55.092Z,98834.71
2023-04-04T22:46:39.706Z,98838.86
2023-04-04T22:50:10.116Z,98838.97
2023-04-04T22:54:11.107Z,98838.34
2023-04-04T22:57:59.872Z,98835.50
2023-04-04T23:01:27.169Z,98831.81
2023-04-04T23:05:09.014Z,98825.39
2023-04-04T23:09:17.686Z,98816.85
2023-04-04T23:13:25.152Z,98818.08
2023-04-04T23:17:33.612Z,98816.45
2023-04-04T23:21:34.935Z,98811.89
2023-04-04T23:25:41.107Z,98804.91
2023-04-04T23:29:48.606Z,98802.55
2023-04-04T23:33:44.944Z,98797.36
2023-04-04T23:37:53.498Z,98801.85
2023-04-04T23:42:00.982Z,98806.36
2023-04-04T23:46:08.656Z,98803.39
2023-04-04T23:49:56.204Z,98803.64
2023-04-04T23:53:43.655Z,98799.40
2023-04-04T23:57:51.054Z,98798.38
